Decoded Metar for KMSV (MONTICELLO in NY, USA) (IATA:MSV) | Meteo·Mobile Aviation Weather
aviador You're here:

KMSV Decoded Metar

MONTICELLO in NY, USA
Report Time2019-03-21 15:22:00
UTC Time2019-03-21 15:42:46
Flight Rules lifr LIFR
Wind080° at 06 kt
W.Decomp.*RWY 15: 3.2 kt HW 5.1 kt LCW
W.Rank080° ranks 10
Current wind is below 080° avg. (6.2)
Visibility2816 m
Phenomena:Light Rain
Mist
Clouds:Overcast 002 Hf
Expected CloudBase > 400 ft AGL from Temp-Dew spread
Ceiling200 ft
Temp02°C (ISA -10)
Dew Point01°C (93% RH)
AAT-2.0°C
QNH1018 hPa
Density Alt92 ft
Elevation1,404 ft
Report Wrong Elevation
Raw Report
KMSV 211522Z AUTO 08006KT 1 3/4SM -RA BR OVC002 02/01 A3006 RMK
AO2 P0004 FZRANO=

Extra information for KMSV:More info

Metar Taf Metar & Taf Last 4 Metars F.Rules Stats Wind Profile Meteogram Temp Stats Airport Information Weather charts Add Link Nearby VenuesMetar ALERT Operation Metar Decoded Social comments

AIRNAV info for KMSV